Time;durP1;ratioP1;P1;durP2;ratioP2;P2;SDS_P1;SDS_P2;PMS_P1;PMS_P2;Temp;Humidity;BMP_temperature;BMP_pressure;BME280_temperature;BME280_humidity;BME280_pressure;Samples;Min_cycle;Max_cycle;Signal;HPM_P1;HPM_P2
2021/09/29 00:02:39;;;;;;;;;;;17.70;71.00;;;;;;4988832;28;96100;-57
2021/09/29 00:05:09;;;;;;;;;;;17.70;71.20;;;;;;4990214;28;96014;-56
2021/09/29 00:07:39;;;;;;;;;;;17.80;71.20;;;;;;5000716;28;95908;-57
2021/09/29 00:10:11;;;;;;;;;;;17.90;71.30;;;;;;4980707;28;95870;-58
2021/09/29 00:12:42;;;;;;;;;;;17.90;71.30;;;;;;4983324;28;95393;-52
2021/09/29 00:15:14;;;;;;;;;;;18.00;71.40;;;;;;5019066;28;95725;-57
2021/09/29 00:17:46;;;;;;;;;;;18.10;71.40;;;;;;4985269;28;95941;-48
2021/09/29 00:20:17;;;;;;;;;;;18.10;71.40;;;;;;4988947;28;96096;-51
2021/09/29 00:22:47;;;;;;;;;;;18.20;71.40;;;;;;4987415;28;95643;-58
2021/09/29 00:25:17;;;;;;;;;;;18.30;71.40;;;;;;4988827;28;95653;-56
2021/09/29 00:27:46;;;;;;;;;;;18.30;71.30;;;;;;4989132;28;96878;-52
2021/09/29 00:30:16;;;;;;;;;;;18.40;71.30;;;;;;4982312;28;96477;-54
2021/09/29 00:32:46;;;;;;;;;;;18.40;71.30;;;;;;4987625;28;102182;-58
2021/09/29 00:35:16;;;;;;;;;;;18.50;71.90;;;;;;4983808;28;95199;-57
2021/09/29 00:37:47;;;;;;;;;;;18.60;71.20;;;;;;4989362;28;95820;-50
2021/09/29 00:40:17;;;;;;;;;;;18.60;71.20;;;;;;4988180;28;98068;-57
2021/09/29 00:42:48;;;;;;;;;;;18.70;71.10;;;;;;4988291;28;95300;-57
2021/09/29 00:45:21;;;;;;;;;;;18.70;71.10;;;;;;4978413;28;95475;-51
2021/09/29 00:47:52;;;;;;;;;;;18.80;71.10;;;;;;4987485;28;95753;-57
2021/09/29 00:50:21;;;;;;;;;;;18.80;71.00;;;;;;4987540;28;95817;-57
2021/09/29 00:52:50;;;;;;;;;;;18.90;71.00;;;;;;4984927;28;95402;-59
2021/09/29 00:55:21;;;;;;;;;;;19.00;71.00;;;;;;4986160;28;95252;-55
2021/09/29 00:57:53;;;;;;;;;;;19.00;70.80;;;;;;4988048;28;95940;-56
2021/09/29 01:00:24;;;;;;;;;;;19.00;70.70;;;;;;4980404;28;96327;-57
2021/09/29 01:02:55;;;;;;;;;;;19.10;70.80;;;;;;4985912;28;96054;-57
2021/09/29 01:05:24;;;;;;;;;;;19.20;70.70;;;;;;4986937;28;96733;-55
2021/09/29 01:07:57;;;;;;;;;;;19.20;70.70;;;;;;4891211;28;2788065;-55
2021/09/29 01:10:34;;;;;;;;;;;19.20;70.50;;;;;;4981803;28;95838;-56
2021/09/29 01:13:11;;;;;;;;;;;19.30;70.50;;;;;;4982024;28;96417;-57
2021/09/29 01:15:49;;;;;;;;;;;19.40;61.10;;;;;;4984440;28;95379;-57
2021/09/29 01:18:20;;;;;;;;;;;19.50;60.90;;;;;;4988541;28;95243;-57
2021/09/29 01:20:50;;;;;;;;;;;19.40;70.20;;;;;;4986891;28;95890;-55
2021/09/29 01:23:19;;;;;;;;;;;19.50;69.90;;;;;;4988424;28;95875;-58
2021/09/29 01:26:06;;;;;;;;;;;19.50;69.40;;;;;;4988752;28;95825;-57
2021/09/29 01:28:43;;;;;;;;;;;19.50;69.20;;;;;;4988410;28;95600;-56
2021/09/29 01:31:15;;;;;;;;;;;19.50;67.20;;;;;;4983606;28;96635;-57
2021/09/29 01:33:47;;;;;;;;;;;19.50;67.00;;;;;;4986202;28;97735;-56
2021/09/29 01:36:18;;;;;;;;;;;19.40;67.20;;;;;;4986685;28;95788;-48
2021/09/29 01:38:54;;;;;;;;;;;19.40;59.90;;;;;;4986635;28;95762;-56
2021/09/29 01:41:31;;;;;;;;;;;19.40;67.10;;;;;;4986368;28;95528;-58
2021/09/29 01:44:03;;;;;;;;;;;19.30;67.10;;;;;;4986282;28;96149;-57
2021/09/29 01:46:33;;;;;;;;;;;19.30;67.30;;;;;;4982301;28;95208;-57
2021/09/29 01:49:08;;;;;;;;;;;19.30;67.30;;;;;;4984471;28;95790;-55
2021/09/29 01:51:40;;;;;;;;;;;19.30;67.50;;;;;;5017011;27;98480;-57
2021/09/29 01:54:14;;;;;;;;;;;19.30;67.60;;;;;;4984720;28;95824;-57
2021/09/29 01:56:45;;;;;;;;;;;19.20;67.70;;;;;;4988598;28;95590;-55
2021/09/29 01:59:16;;;;;;;;;;;19.20;67.70;;;;;;4988511;28;95975;-57
2021/09/29 02:01:46;;;;;;;;;;;19.20;67.70;;;;;;4981972;28;96469;-48
2021/09/29 02:04:19;;;;;;;;;;;19.20;67.90;;;;;;4986086;28;95905;-56
2021/09/29 02:06:54;;;;;;;;;;;19.20;67.80;;;;;;4986922;28;96038;-56
2021/09/29 02:09:26;;;;;;;;;;;19.20;67.90;;;;;;4980272;28;96619;-49
2021/09/29 02:11:57;;;;;;;;;;;19.30;68.00;;;;;;4978840;28;95927;-48
2021/09/29 02:14:28;;;;;;;;;;;19.30;59.00;;;;;;4986382;28;95804;-57
2021/09/29 02:16:58;;;;;;;;;;;19.20;67.90;;;;;;4980923;28;96656;-48
2021/09/29 02:19:29;;;;;;;;;;;19.20;68.00;;;;;;4984276;28;96421;-48
2021/09/29 02:22:00;;;;;;;;;;;19.30;68.00;;;;;;4986412;28;97978;-48
2021/09/29 02:24:29;;;;;;;;;;;19.20;68.00;;;;;;4983581;28;97322;-58
2021/09/29 02:26:59;;;;;;;;;;;19.30;59.20;;;;;;4985148;28;96038;-48
2021/09/29 02:29:28;;;;;;;;;;;19.30;68.00;;;;;;4986114;28;95329;-48
2021/09/29 02:31:59;;;;;;;;;;;19.20;68.00;;;;;;4979418;28;96754;-47
2021/09/29 02:34:29;;;;;;;;;;;19.20;68.10;;;;;;4985245;28;96214;-56
2021/09/29 02:36:59;;;;;;;;;;;19.20;68.10;;;;;;4984518;28;96136;-50
2021/09/29 02:39:32;;;;;;;;;;;19.30;59.10;;;;;;4986580;28;95691;-48
2021/09/29 02:42:04;;;;;;;;;;;19.20;68.10;;;;;;4985377;28;96049;-57
2021/09/29 02:44:35;;;;;;;;;;;19.30;68.10;;;;;;4983897;28;95834;-57
2021/09/29 02:47:05;;;;;;;;;;;19.20;68.00;;;;;;4980577;28;95728;-58
2021/09/29 02:49:35;;;;;;;;;;;19.20;68.10;;;;;;4986642;28;95957;-56
2021/09/29 02:52:04;;;;;;;;;;;19.30;68.20;;;;;;4984193;28;96101;-47
2021/09/29 02:54:35;;;;;;;;;;;19.30;68.20;;;;;;4984656;28;95785;-47
2021/09/29 02:57:05;;;;;;;;;;;19.30;68.20;;;;;;4984598;28;95504;-54
2021/09/29 02:59:36;;;;;;;;;;;19.30;68.20;;;;;;4983314;28;96035;-48
2021/09/29 03:02:06;;;;;;;;;;;19.30;68.30;;;;;;4977343;28;96596;-55
2021/09/29 03:04:37;;;;;;;;;;;19.30;68.30;;;;;;4985810;28;95453;-47
2021/09/29 03:07:08;;;;;;;;;;;19.30;68.30;;;;;;4984498;28;95755;-50
2021/09/29 03:09:39;;;;;;;;;;;19.40;68.30;;;;;;4981119;28;95390;-48
2021/09/29 03:12:10;;;;;;;;;;;19.30;68.30;;;;;;4973072;28;95957;-48
2021/09/29 03:14:41;;;;;;;;;;;19.40;68.30;;;;;;4985818;28;95926;-47
2021/09/29 03:17:11;;;;;;;;;;;19.40;68.40;;;;;;4979473;28;96001;-47
2021/09/29 03:19:42;;;;;;;;;;;19.50;68.50;;;;;;4985684;28;95780;-48
2021/09/29 03:22:11;;;;;;;;;;;19.70;68.40;;;;;;4984788;28;97229;-47
2021/09/29 03:24:41;;;;;;;;;;;19.80;68.30;;;;;;4983858;28;95342;-48
2021/09/29 03:27:10;;;;;;;;;;;19.90;68.30;;;;;;4983575;28;95940;-51
2021/09/29 03:29:40;;;;;;;;;;;20.00;68.10;;;;;;4984438;28;96049;-47
2021/09/29 03:32:12;;;;;;;;;;;20.10;68.10;;;;;;4980041;28;95861;-49
2021/09/29 03:34:42;;;;;;;;;;;20.20;68.10;;;;;;4984231;28;95969;-47
2021/09/29 03:37:12;;;;;;;;;;;20.30;68.00;;;;;;4985472;28;97212;-47
2021/09/29 03:39:44;;;;;;;;;;;20.40;68.00;;;;;;4986329;28;95725;-48
2021/09/29 03:42:16;;;;;;;;;;;20.50;67.90;;;;;;4984520;28;95991;-48
2021/09/29 03:44:47;;;;;;;;;;;20.50;67.90;;;;;;5015510;28;95934;-48
2021/09/29 03:47:17;;;;;;;;;;;20.60;67.80;;;;;;4980084;28;95648;-57
2021/09/29 03:49:46;;;;;;;;;;;20.70;67.70;;;;;;4984168;28;95717;-46
2021/09/29 03:52:16;;;;;;;;;;;20.90;58.70;;;;;;4982761;28;96304;-49
2021/09/29 03:54:46;;;;;;;;;;;20.90;67.60;;;;;;4984990;28;96194;-47
2021/09/29 03:57:17;;;;;;;;;;;21.00;68.20;;;;;;4985089;28;95273;-49
2021/09/29 03:59:50;;;;;;;;;;;21.00;67.50;;;;;;4987800;28;95851;-47
2021/09/29 04:02:20;;;;;;;;;;;21.10;67.50;;;;;;4983243;28;95937;-47
2021/09/29 04:04:51;;;;;;;;;;;21.20;67.40;;;;;;4987755;28;95819;-46
2021/09/29 04:07:22;;;;;;;;;;;21.20;66.60;;;;;;4986305;28;95419;-47
2021/09/29 04:09:52;;;;;;;;;;;21.20;66.40;;;;;;4983535;28;95767;-49
2021/09/29 04:12:24;;;;;;;;;;;21.10;66.50;;;;;;4978498;28;96485;-56
2021/09/29 04:14:55;;;;;;;;;;;21.10;66.60;;;;;;4985327;28;95952;-47
2021/09/29 04:17:25;;;;;;;;;;;21.10;66.60;;;;;;4983726;28;98289;-48
2021/09/29 04:19:56;;;;;;;;;;;21.00;66.60;;;;;;4985850;28;96595;-51
2021/09/29 04:22:26;;;;;;;;;;;21.00;66.70;;;;;;5018605;28;96094;-47
2021/09/29 04:24:56;;;;;;;;;;;21.00;66.70;;;;;;4982812;28;97880;-48
2021/09/29 04:27:29;;;;;;;;;;;21.00;66.70;;;;;;4986995;28;95345;-48
2021/09/29 04:30:00;;;;;;;;;;;21.00;66.70;;;;;;4988277;28;96229;-50
2021/09/29 04:32:31;;;;;;;;;;;21.00;66.80;;;;;;4983701;28;96670;-49
2021/09/29 04:35:00;;;;;;;;;;;21.00;66.80;;;;;;4987231;28;96146;-47
2021/09/29 04:37:30;;;;;;;;;;;21.00;66.70;;;;;;4987507;28;95826;-50
2021/09/29 04:40:00;;;;;;;;;;;21.00;66.80;;;;;;4986951;28;96716;-48
2021/09/29 04:42:31;;;;;;;;;;;21.10;66.70;;;;;;4986475;28;96571;-48
2021/09/29 04:45:01;;;;;;;;;;;21.10;66.70;;;;;;4986690;28;95367;-49
2021/09/29 04:47:31;;;;;;;;;;;21.10;66.70;;;;;;4982864;28;96708;-48
2021/09/29 04:50:01;;;;;;;;;;;21.20;66.70;;;;;;4987818;28;95740;-48
2021/09/29 04:52:32;;;;;;;;;;;21.20;66.70;;;;;;4986810;28;95886;-48
2021/09/29 04:55:02;;;;;;;;;;;21.20;66.70;;;;;;4986664;28;95725;-49
2021/09/29 04:57:33;;;;;;;;;;;21.10;66.70;;;;;;4985921;28;95499;-47
2021/09/29 05:00:05;;;;;;;;;;;21.10;66.70;;;;;;4980996;28;96604;-49
2021/09/29 05:02:38;;;;;;;;;;;21.20;66.80;;;;;;4986635;28;96339;-48
2021/09/29 05:05:07;;;;;;;;;;;21.20;66.70;;;;;;4984271;28;96081;-47
2021/09/29 05:07:42;;;;;;;;;;;21.20;66.70;;;;;;4983574;28;96018;-49
2021/09/29 05:10:15;;;;;;;;;;;21.10;66.60;;;;;;4978955;28;96449;-49
2021/09/29 05:12:47;;;;;;;;;;;21.20;66.70;;;;;;4975927;28;96707;-48
2021/09/29 05:15:17;;;;;;;;;;;21.10;66.60;;;;;;4982080;28;96053;-47
2021/09/29 05:17:47;;;;;;;;;;;21.10;66.70;;;;;;4986501;28;96019;-48
2021/09/29 05:20:17;;;;;;;;;;;21.10;66.70;;;;;;4987818;28;95883;-46
2021/09/29 05:22:46;;;;;;;;;;;21.10;66.70;;;;;;4987150;28;96249;-47
2021/09/29 05:25:16;;;;;;;;;;;21.10;66.80;;;;;;4987084;28;96052;-47
2021/09/29 05:27:47;;;;;;;;;;;21.10;66.80;;;;;;4986745;28;95765;-47
2021/09/29 05:30:17;;;;;;;;;;;21.10;67.50;;;;;;4981651;28;97757;-48
2021/09/29 05:32:48;;;;;;;;;;;21.20;67.00;;;;;;4982851;28;104319;-47
2021/09/29 05:35:18;;;;;;;;;;;21.20;67.00;;;;;;4986374;28;96100;-47
2021/09/29 05:37:49;;;;;;;;;;;21.20;67.10;;;;;;4987080;28;95915;-46
2021/09/29 05:40:20;;;;;;;;;;;21.10;66.90;;;;;;4987844;28;95825;-48
2021/09/29 05:42:51;;;;;;;;;;;21.20;67.00;;;;;;4985967;28;96538;-47
2021/09/29 05:45:21;;;;;;;;;;;21.10;66.90;;;;;;4981880;28;95285;-47
2021/09/29 05:47:51;;;;;;;;;;;21.10;66.90;;;;;;5015346;28;96592;-47
2021/09/29 05:50:23;;;;;;;;;;;21.10;66.90;;;;;;4985181;28;95704;-48
2021/09/29 05:52:54;;;;;;;;;;;21.10;67.00;;;;;;4985521;28;97522;-47
2021/09/29 05:55:24;;;;;;;;;;;21.10;66.90;;;;;;4984111;28;97518;-47
2021/09/29 05:57:55;;;;;;;;;;;21.20;66.80;;;;;;4986058;28;95827;-45
2021/09/29 06:00:26;;;;;;;;;;;21.30;66.50;;;;;;4982960;28;95763;-47
2021/09/29 06:02:56;;;;;;;;;;;21.40;66.10;;;;;;4984359;28;102190;-47
2021/09/29 06:05:26;;;;;;;;;;;21.50;65.90;;;;;;4983903;28;95889;-46
2021/09/29 06:07:55;;;;;;;;;;;21.50;65.70;;;;;;4985259;28;95918;-46
2021/09/29 06:10:27;;;;;;;;;;;21.60;65.50;;;;;;4981582;28;95842;-47
2021/09/29 06:12:57;;;;;;;;;;;21.60;65.50;;;;;;4980597;28;95863;-45
2021/09/29 06:15:29;;;;;;;;;;;21.60;65.40;;;;;;4982412;28;98453;-46
2021/09/29 06:18:04;;;;;;;;;;;21.60;65.40;;;;;;4984789;28;95918;-45
2021/09/29 06:20:35;;;;;;;;;;;21.60;65.40;;;;;;4983813;28;96542;-48
2021/09/29 06:23:05;;;;;;;;;;;21.60;65.30;;;;;;4984200;28;95780;-45
2021/09/29 06:25:35;;;;;;;;;;;21.60;65.30;;;;;;4983888;28;96588;-45
2021/09/29 06:28:07;;;;;;;;;;;21.60;65.20;;;;;;4985849;28;95754;-46
2021/09/29 06:30:39;;;;;;;;;;;21.60;65.30;;;;;;4979941;28;96486;-47
2021/09/29 06:33:09;;;;;;;;;;;21.60;65.20;;;;;;4966098;28;95795;-45
2021/09/29 06:35:39;;;;;;;;;;;21.60;65.10;;;;;;4964312;28;95895;-46
2021/09/29 06:38:11;;;;;;;;;;;21.60;65.10;;;;;;4965051;28;95991;-45
2021/09/29 06:40:43;;;;;;;;;;;21.60;65.10;;;;;;4965650;28;95959;-47
2021/09/29 06:43:15;;;;;;;;;;;21.60;65.10;;;;;;4965198;28;95847;-47
2021/09/29 06:45:46;;;;;;;;;;;21.60;65.00;;;;;;4958352;28;95970;-47
2021/09/29 06:48:16;;;;;;;;;;;21.60;65.10;;;;;;4965450;28;95631;-46
2021/09/29 06:50:47;;;;;;;;;;;21.60;65.10;;;;;;4965654;28;96038;-46
2021/09/29 06:53:20;;;;;;;;;;;21.60;65.20;;;;;;4963646;28;95844;-48
2021/09/29 06:55:51;;;;;;;;;;;21.60;60.00;;;;;;4961922;28;96032;-49
2021/09/29 06:58:22;;;;;;;;;;;21.40;65.60;;;;;;4965192;28;95884;-47
2021/09/29 07:00:53;;;;;;;;;;;21.40;65.80;;;;;;4958438;28;96900;-50
2021/09/29 07:03:25;;;;;;;;;;;21.40;66.00;;;;;;4965115;28;97851;-46
2021/09/29 07:05:56;;;;;;;;;;;21.40;66.00;;;;;;4964791;28;96587;-46
2021/09/29 07:08:26;;;;;;;;;;;21.40;66.10;;;;;;4965598;28;95740;-51
2021/09/29 07:10:57;;;;;;;;;;;21.40;66.20;;;;;;4955521;28;96156;-48
2021/09/29 07:13:27;;;;;;;;;;;21.40;66.30;;;;;;4962083;28;96448;-48
2021/09/29 07:15:58;;;;;;;;;;;21.40;66.20;;;;;;4991204;28;95960;-48
2021/09/29 07:18:31;;;;;;;;;;;21.40;66.20;;;;;;4965207;28;96108;-54
2021/09/29 07:21:00;;;;;;;;;;;21.40;66.20;;;;;;4965191;28;95944;-46
2021/09/29 07:23:30;;;;;;;;;;;21.40;66.30;;;;;;4965524;28;96209;-47
2021/09/29 07:26:00;;;;;;;;;;;21.40;66.10;;;;;;4964210;28;95800;-49
2021/09/29 07:28:30;;;;;;;;;;;21.40;66.10;;;;;;4963659;28;95359;-47
2021/09/29 07:31:01;;;;;;;;;;;21.30;66.10;;;;;;4961335;28;97013;-47
2021/09/29 07:33:33;;;;;;;;;;;21.30;66.10;;;;;;4966515;28;95942;-47
2021/09/29 07:36:06;;;;;;;;;;;21.30;66.20;;;;;;4967674;28;95712;-45
2021/09/29 07:38:37;;;;;;;;;;;21.30;66.30;;;;;;4966990;28;96080;-46
2021/09/29 07:41:08;;;;;;;;;;;21.30;66.40;;;;;;4967265;28;96321;-48
2021/09/29 07:43:38;;;;;;;;;;;21.20;66.40;;;;;;4967534;28;95792;-48
2021/09/29 07:46:09;;;;;;;;;;;21.20;66.60;;;;;;4960806;28;95899;-47
2021/09/29 07:48:39;;;;;;;;;;;21.20;66.60;;;;;;4967502;28;95821;-48
2021/09/29 07:51:09;;;;;;;;;;;21.20;66.70;;;;;;4968287;28;96210;-47
2021/09/29 07:53:41;;;;;;;;;;;21.10;66.70;;;;;;4982799;28;97970;-49
2021/09/29 07:56:11;;;;;;;;;;;21.10;66.70;;;;;;4967569;28;96280;-48
2021/09/29 07:58:42;;;;;;;;;;;21.10;66.70;;;;;;4964625;28;99421;-48
2021/09/29 08:01:13;;;;;;;;;;;21.10;66.70;;;;;;4962264;28;95941;-50
2021/09/29 08:03:45;;;;;;;;;;;21.10;66.90;;;;;;4966146;28;98000;-50
2021/09/29 08:06:14;;;;;;;;;;;21.10;67.00;;;;;;4967081;28;95962;-47
2021/09/29 08:08:44;;;;;;;;;;;21.10;67.00;;;;;;4967187;28;97201;-52
2021/09/29 08:11:16;;;;;;;;;;;21.10;67.00;;;;;;4955948;28;95402;-50
2021/09/29 08:13:46;;;;;;;;;;;21.10;67.00;;;;;;4964192;28;96373;-50
2021/09/29 08:16:17;;;;;;;;;;;21.10;66.90;;;;;;4962147;28;95950;-47
2021/09/29 08:18:48;;;;;;;;;;;21.10;67.00;;;;;;4965694;28;96097;-48
2021/09/29 08:21:23;;;;;;;;;;;21.10;66.90;;;;;;4982229;28;95493;-47
2021/09/29 08:23:54;;;;;;;;;;;21.10;66.90;;;;;;4967425;28;96520;-47
2021/09/29 08:39:56;;;;;;;;;;;21.00;59.50;;;;;;4965676;28;95296;-47
2021/09/29 08:45:33;;;;;;;;;;;21.00;67.60;;;;;;4959989;28;98019;-51
2021/09/29 08:48:56;;;;;;;;;;;21.00;67.60;;;;;;4966193;28;96282;-54
2021/09/29 08:53:53;;;;;;;;;;;20.90;67.50;;;;;;4965602;28;95345;-48
2021/09/29 09:16:09;;;;;;;;;;;20.80;68.10;;;;;;4961142;28;97202;-48
2021/09/29 09:18:51;;;;;;;;;;;20.80;68.20;;;;;;4998518;28;96883;-54
2021/09/29 09:21:20;;;;;;;;;;;20.70;68.10;;;;;;4966250;28;96269;-47
2021/09/29 09:24:15;;;;;;;;;;;20.70;68.10;;;;;;4965447;28;95839;-48
2021/09/29 09:26:55;;;;;;;;;;;20.70;68.20;;;;;;4966315;28;96235;-48
2021/09/29 09:29:27;;;;;;;;;;;20.70;68.20;;;;;;4966095;28;95820;-54
2021/09/29 09:32:07;;;;;;;;;;;20.70;68.20;;;;;;4961578;28;96643;-55
2021/09/29 09:34:37;;;;;;;;;;;20.70;68.40;;;;;;4967409;28;95643;-48
2021/09/29 09:37:13;;;;;;;;;;;20.60;68.40;;;;;;4967358;28;95946;-50
2021/09/29 09:39:44;;;;;;;;;;;20.60;68.40;;;;;;4964345;28;96551;-51
2021/09/29 09:42:15;;;;;;;;;;;20.60;59.90;;;;;;4963920;28;95827;-49
2021/09/29 09:44:46;;;;;;;;;;;20.60;68.50;;;;;;4966905;28;95942;-47
2021/09/29 09:47:16;;;;;;;;;;;20.50;68.50;;;;;;4961047;28;95430;-48
2021/09/29 09:49:53;;;;;;;;;;;20.50;68.50;;;;;;4963727;28;98734;-54
2021/09/29 09:52:44;;;;;;;;;;;20.60;60.00;;;;;;4964638;28;95681;-51
2021/09/29 09:55:19;;;;;;;;;;;20.50;68.50;;;;;;4965720;28;95812;-53
2021/09/29 09:57:54;;;;;;;;;;;20.50;68.50;;;;;;4995602;28;95906;-49
2021/09/29 10:00:26;;;;;;;;;;;20.40;68.50;;;;;;4961068;28;96052;-47
2021/09/29 10:02:56;;;;;;;;;;;20.50;68.60;;;;;;4965833;28;96871;-52
2021/09/29 10:05:30;;;;;;;;;;;20.40;68.70;;;;;;4964834;28;95346;-54
2021/09/29 10:08:02;;;;;;;;;;;20.40;68.70;;;;;;4966453;28;96865;-46
2021/09/29 10:10:48;;;;;;;;;;;20.40;68.80;;;;;;4958211;28;96769;-56
2021/09/29 10:13:41;;;;;;;;;;;20.40;68.80;;;;;;4961497;28;95835;-55
2021/09/29 10:27:54;;;;;;;;;;;20.30;68.90;;;;;;4965632;28;95840;-56
2021/09/29 10:30:38;;;;;;;;;;;20.30;68.90;;;;;;4960281;28;95886;-54
2021/09/29 10:33:14;;;;;;;;;;;20.30;68.90;;;;;;4961937;28;96515;-57
2021/09/29 10:45:22;;;;;;;;;;;20.20;68.90;;;;;;4961818;28;96144;-47
2021/09/29 10:47:50;;;;;;;;;;;20.20;68.80;;;;;;4958841;28;95932;-53
2021/09/29 11:03:00;;;;;;;;;;;20.10;69.20;;;;;;4954308;28;95875;-49
2021/09/29 11:05:38;;;;;;;;;;;20.10;69.20;;;;;;4963039;28;98244;-48
2021/09/29 11:30:45;;;;;;;;;;;19.90;69.30;;;;;;4962644;28;96039;-48
2021/09/29 11:39:06;;;;;;;;;;;19.80;69.30;;;;;;4966989;28;96096;-46
2021/09/29 12:12:31;;;;;;;;;;;19.60;69.50;;;;;;4958966;28;98286;-54
2021/09/29 12:15:04;;;;;;;;;;;19.60;69.50;;;;;;4967703;28;96544;-57
2021/09/29 12:17:37;;;;;;;;;;;19.60;69.60;;;;;;4963622;28;95287;-57
2021/09/29 12:20:17;;;;;;;;;;;19.60;69.80;;;;;;4967298;28;96232;-57
2021/09/29 12:22:51;;;;;;;;;;;19.50;69.50;;;;;;4967733;28;95684;-48
2021/09/29 12:28:30;;;;;;;;;;;19.50;69.60;;;;;;4965423;28;95770;-56
2021/09/29 12:36:27;;;;;;;;;;;19.40;69.60;;;;;;4966196;28;98359;-56
2021/09/29 12:38:58;;;;;;;;;;;19.50;69.70;;;;;;4966745;28;96159;-55
2021/09/29 12:41:32;;;;;;;;;;;19.40;69.60;;;;;;4967676;28;96110;-57
2021/09/29 12:44:04;;;;;;;;;;;19.40;69.60;;;;;;4966229;28;95629;-57
2021/09/29 12:46:35;;;;;;;;;;;19.40;69.60;;;;;;4960749;28;96194;-49
2021/09/29 12:49:12;;;;;;;;;;;19.40;69.60;;;;;;4966783;28;95665;-50
2021/09/29 12:51:43;;;;;;;;;;;19.40;69.70;;;;;;4966641;28;97453;-56
2021/09/29 12:54:22;;;;;;;;;;;19.30;70.30;;;;;;4997909;28;96015;-56
2021/09/29 12:56:52;;;;;;;;;;;19.30;69.60;;;;;;4967226;28;95854;-48
2021/09/29 12:59:23;;;;;;;;;;;19.40;69.70;;;;;;4966310;28;96438;-57
2021/09/29 13:01:53;;;;;;;;;;;19.30;69.70;;;;;;4961507;28;96391;-47
2021/09/29 13:04:23;;;;;;;;;;;19.30;69.60;;;;;;4966985;28;96227;-56
2021/09/29 13:06:53;;;;;;;;;;;19.30;69.60;;;;;;4966188;28;95977;-46
2021/09/29 13:09:23;;;;;;;;;;;19.30;69.70;;;;;;4964749;28;95678;-56
2021/09/29 13:11:54;;;;;;;;;;;19.30;69.70;;;;;;4958340;28;96193;-57
2021/09/29 13:14:24;;;;;;;;;;;19.30;69.80;;;;;;4967317;28;95717;-48
2021/09/29 13:16:54;;;;;;;;;;;19.30;69.80;;;;;;4961947;28;95957;-57
2021/09/29 13:19:53;;;;;;;;;;;19.30;69.70;;;;;;4965053;28;95296;-50
2021/09/29 13:22:21;;;;;;;;;;;19.20;69.80;;;;;;4966937;28;96464;-48
2021/09/29 13:25:51;;;;;;;;;;;19.30;69.80;;;;;;4967149;28;96353;-58
2021/09/29 13:39:11;;;;;;;;;;;19.10;69.80;;;;;;4966651;28;96473;-47
2021/09/29 13:41:42;;;;;;;;;;;19.20;69.80;;;;;;4965795;28;95890;-48
2021/09/29 13:44:13;;;;;;;;;;;19.10;69.80;;;;;;4965934;28;95773;-47
2021/09/29 13:46:43;;;;;;;;;;;19.10;69.80;;;;;;4960745;28;95354;-47
2021/09/29 13:49:13;;;;;;;;;;;19.10;69.80;;;;;;4966088;28;96557;-49
2021/09/29 13:51:50;;;;;;;;;;;19.10;69.80;;;;;;4993906;28;95867;-48
2021/09/29 13:54:23;;;;;;;;;;;19.10;69.90;;;;;;4966033;28;95777;-55
2021/09/29 13:57:12;;;;;;;;;;;19.00;69.90;;;;;;4966966;28;96260;-47
2021/09/29 14:30:15;;;;;;;;;;;19.00;70.30;;;;;;4967251;28;96564;-51
2021/09/29 14:35:26;;;;;;;;;;;19.00;70.20;;;;;;4968529;28;95968;-50
2021/09/29 14:37:57;;;;;;;;;;;19.00;70.10;;;;;;4969405;28;96300;-49
2021/09/29 14:40:28;;;;;;;;;;;19.00;70.20;;;;;;4967751;28;95957;-49
2021/09/29 14:42:58;;;;;;;;;;;19.00;70.20;;;;;;4965479;28;95903;-51
2021/09/29 14:45:29;;;;;;;;;;;19.00;70.10;;;;;;4992858;28;95931;-51
2021/09/29 14:47:59;;;;;;;;;;;19.00;70.20;;;;;;4967884;28;96555;-50
2021/09/29 14:50:28;;;;;;;;;;;19.00;70.10;;;;;;4969775;28;97820;-50
2021/09/29 14:52:59;;;;;;;;;;;19.00;70.20;;;;;;4967139;28;96392;-50
2021/09/29 14:55:32;;;;;;;;;;;19.00;70.10;;;;;;4966694;28;96594;-48
2021/09/29 14:58:05;;;;;;;;;;;19.00;70.00;;;;;;4966492;28;96078;-49
2021/09/29 15:00:35;;;;;;;;;;;19.10;70.00;;;;;;4959829;28;96510;-48
2021/09/29 15:03:10;;;;;;;;;;;19.10;69.90;;;;;;4965346;28;95847;-49
2021/09/29 15:05:40;;;;;;;;;;;19.10;69.80;;;;;;4965301;28;95659;-50
2021/09/29 15:08:10;;;;;;;;;;;19.10;69.90;;;;;;4965707;28;95819;-49
2021/09/29 15:10:41;;;;;;;;;;;19.10;69.80;;;;;;4953391;28;96018;-56
2021/09/29 15:13:14;;;;;;;;;;;19.10;69.80;;;;;;4959380;28;96412;-48
2021/09/29 15:24:10;;;;;;;;;;;19.10;69.80;;;;;;4965084;28;96382;-49
2021/09/29 15:27:17;;;;;;;;;;;19.10;69.80;;;;;;4963825;28;97023;-47
2021/09/29 15:54:21;;;;;;;;;;;19.00;69.90;;;;;;4968640;28;95911;-48
2021/09/29 15:57:22;;;;;;;;;;;19.00;69.90;;;;;;4965965;28;97423;-49
2021/09/29 16:07:39;;;;;;;;;;;18.90;70.00;;;;;;4966293;28;96370;-48
2021/09/29 16:32:25;;;;;;;;;;;18.90;70.20;;;;;;4947895;28;95842;-47
2021/09/29 16:35:02;;;;;;;;;;;18.80;70.20;;;;;;4965073;28;95876;-48
2021/09/29 16:37:32;;;;;;;;;;;18.90;70.20;;;;;;4965228;28;95823;-48
2021/09/29 16:40:04;;;;;;;;;;;18.80;70.20;;;;;;4963771;28;97038;-49
2021/09/29 16:42:36;;;;;;;;;;;18.80;70.20;;;;;;4965804;28;95719;-47
2021/09/29 16:45:09;;;;;;;;;;;18.80;70.20;;;;;;5000743;28;96178;-47
2021/09/29 16:47:41;;;;;;;;;;;18.80;70.30;;;;;;4970027;28;96547;-48
2021/09/29 16:50:10;;;;;;;;;;;18.90;70.60;;;;;;4970872;28;95898;-51
2021/09/29 16:52:44;;;;;;;;;;;19.00;70.70;;;;;;4970525;28;95706;-52
2021/09/29 16:55:25;;;;;;;;;;;19.10;62.10;;;;;;4969895;28;96125;-49
2021/09/29 17:00:58;;;;;;;;;;;19.10;70.80;;;;;;4929297;28;95975;-48
2021/09/29 17:03:29;;;;;;;;;;;19.10;70.80;;;;;;4969120;28;95475;-50
2021/09/29 17:05:59;;;;;;;;;;;19.20;70.80;;;;;;4966896;28;95285;-49
2021/09/29 17:08:29;;;;;;;;;;;19.20;70.20;;;;;;4959722;28;95894;-46
2021/09/29 17:11:01;;;;;;;;;;;19.10;70.20;;;;;;4959535;28;95752;-47
2021/09/29 17:13:37;;;;;;;;;;;19.00;70.40;;;;;;4963229;28;95806;-48
2021/09/29 17:16:10;;;;;;;;;;;19.00;70.60;;;;;;4956816;28;95835;-48
2021/09/29 17:18:44;;;;;;;;;;;19.00;70.70;;;;;;4963924;28;95728;-47
2021/09/29 17:21:15;;;;;;;;;;;18.90;70.80;;;;;;4960843;28;97142;-47
2021/09/29 17:23:45;;;;;;;;;;;18.80;70.80;;;;;;4957522;28;95508;-47
2021/09/29 17:26:15;;;;;;;;;;;18.90;70.90;;;;;;4991279;28;96055;-47
2021/09/29 17:28:49;;;;;;;;;;;18.80;71.00;;;;;;4967900;28;96431;-47
2021/09/29 17:31:24;;;;;;;;;;;18.80;62.00;;;;;;4962963;28;95836;-49
2021/09/29 17:34:10;;;;;;;;;;;18.80;71.10;;;;;;4967223;28;95491;-47
2021/09/29 17:53:18;;;;;;;;;;;18.60;71.60;;;;;;4971412;28;95899;-46
2021/09/29 17:55:49;;;;;;;;;;;18.60;71.60;;;;;;4970809;28;95695;-47
2021/09/29 17:58:20;;;;;;;;;;;18.60;71.60;;;;;;4971406;28;95296;-46
2021/09/29 18:00:51;;;;;;;;;;;18.50;71.60;;;;;;4966212;28;95492;-47
2021/09/29 18:03:27;;;;;;;;;;;18.50;71.60;;;;;;4969661;28;95802;-48
2021/09/29 18:06:11;;;;;;;;;;;18.50;71.60;;;;;;4968826;28;95366;-46
2021/09/29 18:08:42;;;;;;;;;;;18.50;71.60;;;;;;4971431;28;95770;-46
2021/09/29 18:11:14;;;;;;;;;;;18.50;71.60;;;;;;4963472;28;95852;-47
2021/09/29 18:13:45;;;;;;;;;;;18.40;71.60;;;;;;4966718;28;95890;-46
2021/09/29 18:16:19;;;;;;;;;;;18.40;71.70;;;;;;4964398;28;95912;-47
2021/09/29 18:18:50;;;;;;;;;;;18.40;71.80;;;;;;5001181;28;95857;-46
2021/09/29 18:21:19;;;;;;;;;;;18.30;71.70;;;;;;4970850;28;95888;-46
2021/09/29 18:23:49;;;;;;;;;;;18.40;71.90;;;;;;4970631;28;95986;-46
2021/09/29 18:26:18;;;;;;;;;;;18.30;71.90;;;;;;4968127;28;95434;-47
2021/09/29 18:28:51;;;;;;;;;;;18.30;72.00;;;;;;4968631;28;96089;-47
2021/09/29 18:31:21;;;;;;;;;;;18.30;72.00;;;;;;4966892;28;95975;-46
2021/09/29 18:33:51;;;;;;;;;;;18.20;72.20;;;;;;4970692;28;95871;-46
2021/09/29 18:36:23;;;;;;;;;;;18.20;72.10;;;;;;4969065;28;95428;-47
2021/09/29 18:38:55;;;;;;;;;;;18.20;72.20;;;;;;4971117;28;95992;-46
2021/09/29 18:41:34;;;;;;;;;;;18.20;72.20;;;;;;4971269;28;97806;-46
2021/09/29 18:44:06;;;;;;;;;;;18.20;72.30;;;;;;4970448;28;95970;-46
2021/09/29 18:46:37;;;;;;;;;;;18.20;72.40;;;;;;4965405;28;96025;-47
2021/09/29 18:49:13;;;;;;;;;;;18.20;72.40;;;;;;4970460;28;96407;-48
2021/09/29 18:51:49;;;;;;;;;;;18.10;72.40;;;;;;4969882;28;95777;-48
2021/09/29 19:08:04;;;;;;;;;;;18.00;72.70;;;;;;4980965;28;97215;-46
2021/09/29 19:10:35;;;;;;;;;;;18.10;63.80;;;;;;4964817;28;95918;-46
2021/09/29 19:13:05;;;;;;;;;;;18.00;72.80;;;;;;4967721;28;95570;-46
2021/09/29 19:15:36;;;;;;;;;;;18.00;72.80;;;;;;4965298;28;95826;-46
2021/09/29 19:18:08;;;;;;;;;;;18.00;72.80;;;;;;4970169;28;95776;-47
2021/09/29 19:20:39;;;;;;;;;;;18.00;72.90;;;;;;4965863;28;96137;-46
2021/09/29 19:23:10;;;;;;;;;;;17.90;72.80;;;;;;4970907;28;96051;-46
2021/09/29 19:25:41;;;;;;;;;;;17.90;73.00;;;;;;4967561;28;95910;-46
2021/09/29 19:28:28;;;;;;;;;;;17.90;73.00;;;;;;4969943;28;96032;-46